Time;durP1;ratioP1;P1;durP2;ratioP2;P2;SDS_P1;SDS_P2;PMS_P1;PMS_P2;Temp;Humidity;BMP_temperature;BMP_pressure;BME280_temperature;BME280_humidity;BME280_pressure;Samples;Min_cycle;Max_cycle;Signal;HPM_P1;HPM_P2
2021/03/29 04:10:53;;;;;;;0.60;0.60;;;12.40;86.90;;;;;;5678919;23;20853;-76
2021/03/29 04:13:26;;;;;;;0.80;0.80;;;12.40;88.20;;;;;;4954416;29;20205;-76
2021/03/29 04:15:53;;;;;;;0.60;0.60;;;12.40;88.00;;;;;;4953990;29;20212;-77
2021/03/29 04:18:20;;;;;;;0.60;0.60;;;12.40;87.90;;;;;;4954255;29;20248;-76
2021/03/29 04:20:47;;;;;;;0.70;0.70;;;12.40;88.00;;;;;;4949174;29;20222;-76
2021/03/29 04:23:14;;;;;;;0.63;0.63;;;12.50;88.30;;;;;;4935123;29;20261;-76
2021/03/29 04:25:41;;;;;;;0.60;0.60;;;12.50;87.70;;;;;;4935303;29;20233;-76
2021/03/29 04:28:09;;;;;;;0.60;0.60;;;12.50;87.30;;;;;;4934877;29;20209;-76
2021/03/29 04:30:36;;;;;;;0.60;0.60;;;12.50;87.80;;;;;;4934660;29;20277;-76
2021/03/29 04:33:03;;;;;;;0.75;0.75;;;12.50;88.30;;;;;;4935041;29;20288;-77
2021/03/29 04:35:31;;;;;;;0.60;0.60;;;12.50;88.50;;;;;;4934618;29;20201;-77
2021/03/29 04:37:58;;;;;;;0.70;0.70;;;12.60;87.90;;;;;;4934624;29;20206;-77
2021/03/29 04:40:26;;;;;;;0.80;0.80;;;12.60;99.90;;;;;;4934733;29;20254;-77
2021/03/29 04:42:54;;;;;;;0.50;0.50;;;12.60;88.30;;;;;;4934654;29;20202;-77
2021/03/29 04:45:23;;;;;;;0.50;0.50;;;12.60;88.20;;;;;;4934647;29;20201;-77
2021/03/29 04:47:50;;;;;;;0.60;0.60;;;12.50;87.90;;;;;;4934604;29;20610;-77
2021/03/29 04:50:20;;;;;;;0.50;0.50;;;12.50;99.90;;;;;;4934540;29;20198;-77
2021/03/29 04:52:48;;;;;;;0.60;0.60;;;12.50;88.00;;;;;;4934719;29;20206;-77
2021/03/29 04:55:16;;;;;;;0.65;0.65;;;12.60;88.00;;;;;;4934355;29;20233;-77
2021/03/29 04:57:44;;;;;;;0.70;0.70;;;12.50;87.50;;;;;;4934533;29;20202;-77
2021/03/29 05:00:13;;;;;;;0.80;0.80;;;12.60;99.90;;;;;;4934683;29;20206;-77
2021/03/29 05:02:41;;;;;;;0.60;0.60;;;12.50;87.90;;;;;;4934533;29;20678;-77
2021/03/29 05:05:10;;;;;;;0.50;0.50;;;12.50;87.80;;;;;;4933247;29;20210;-76
2021/03/29 05:07:37;;;;;;;0.70;0.70;;;12.50;87.80;;;;;;4930370;29;20226;-77
2021/03/29 05:10:09;;;;;;;0.70;0.70;;;12.40;88.10;;;;;;4933536;29;20302;-75
2021/03/29 05:12:36;;;;;;;0.50;0.50;;;12.40;87.90;;;;;;4936049;29;20218;-77
2021/03/29 05:15:05;;;;;;;0.70;0.70;;;12.40;88.10;;;;;;4936936;29;20292;-76
2021/03/29 05:17:32;;;;;;;0.50;0.50;;;12.40;88.50;;;;;;4937278;29;20261;-76
2021/03/29 05:19:59;;;;;;;0.60;0.60;;;12.40;88.80;;;;;;4937273;29;20264;-77
2021/03/29 05:22:27;;;;;;;0.70;0.70;;;12.50;88.70;;;;;;4936824;29;20766;-76
2021/03/29 05:24:54;;;;;;;0.80;0.80;;;12.50;88.90;;;;;;4936748;29;20266;-76
2021/03/29 05:27:20;;;;;;;0.60;0.60;;;12.40;87.50;;;;;;4932567;29;20786;-78
2021/03/29 05:29:47;;;;;;;0.85;0.85;;;12.60;88.10;;;;;;4937159;29;20202;-77
2021/03/29 05:32:17;;;;;;;0.60;0.60;;;12.60;87.30;;;;;;4937018;29;20762;-76
2021/03/29 05:34:46;;;;;;;0.80;0.80;;;12.70;87.90;;;;;;4942159;29;20201;-77
2021/03/29 05:37:15;;;;;;;0.68;0.68;;;12.70;87.00;;;;;;4939518;29;20351;-78
2021/03/29 05:39:44;;;;;;;0.80;0.80;;;12.70;86.70;;;;;;4937762;29;20202;-77
2021/03/29 05:42:15;;;;;;;0.60;0.60;;;12.80;86.70;;;;;;4937348;29;20225;-78
2021/03/29 05:44:42;;;;;;;0.63;0.63;;;12.90;86.30;;;;;;4937200;29;20249;-79
2021/03/29 05:47:09;;;;;;;0.50;0.50;;;12.90;86.60;;;;;;4937039;29;20636;-78
2021/03/29 05:49:36;;;;;;;0.50;0.50;;;13.50;87.10;;;;;;4935483;29;20202;-76
2021/03/29 05:52:04;;;;;;;0.60;0.60;;;13.10;86.20;;;;;;4935490;29;20222;-76
2021/03/29 05:54:32;;;;;;;0.60;0.60;;;13.10;86.10;;;;;;4936824;29;20213;-76
2021/03/29 05:56:59;;;;;;;0.70;0.70;;;13.10;86.40;;;;;;4936904;29;20199;-75
2021/03/29 05:59:33;;;;;;;0.73;0.73;;;13.20;87.10;;;;;;4936439;29;20234;-75
2021/03/29 06:02:00;;;;;;;0.60;0.60;;;13.20;85.50;;;;;;4935543;29;20236;-76
2021/03/29 06:04:43;;;;;;;0.50;0.50;;;13.20;85.90;;;;;;4935863;29;20209;-76
2021/03/29 06:07:12;;;;;;;0.50;0.50;;;13.20;85.20;;;;;;4935197;29;20221;-76
2021/03/29 06:09:40;;;;;;;0.55;0.55;;;13.30;84.80;;;;;;4936233;29;20606;-76
2021/03/29 06:12:08;;;;;;;0.73;0.73;;;13.40;84.60;;;;;;4936027;29;20229;-76
2021/03/29 06:14:35;;;;;;;0.50;0.50;;;13.50;83.70;;;;;;4936094;29;20207;-76
2021/03/29 06:17:04;;;;;;;0.50;0.50;;;13.50;83.80;;;;;;4935850;29;20233;-76
2021/03/29 06:19:43;;;;;;;0.60;0.60;;;13.50;83.70;;;;;;4936375;29;20430;-76
2021/03/29 06:22:12;;;;;;;0.50;0.50;;;13.40;83.80;;;;;;4935423;29;20225;-76
2021/03/29 06:25:08;;;;;;;0.50;0.50;;;13.60;83.10;;;;;;4935911;29;20205;-76
2021/03/29 06:27:44;;;;;;;0.60;0.60;;;13.70;82.50;;;;;;4936057;29;20229;-76
2021/03/29 06:30:23;;;;;;;0.50;0.50;;;13.90;96.40;;;;;;4936110;29;20619;-76
2021/03/29 06:32:59;;;;;;;0.50;0.50;;;13.80;82.30;;;;;;4935932;29;20488;-75
2021/03/29 06:35:28;;;;;;;0.50;0.50;;;13.70;82.20;;;;;;4935583;29;20202;-76
2021/03/29 06:38:10;;;;;;;0.40;0.40;;;13.80;81.80;;;;;;4935839;29;20210;-75
2021/03/29 06:40:42;;;;;;;0.40;0.40;;;13.90;81.80;;;;;;4936006;29;20240;-76
2021/03/29 06:43:24;;;;;;;0.60;0.60;;;14.00;81.20;;;;;;4935816;29;20206;-75
2021/03/29 06:45:54;;;;;;;0.57;0.57;;;14.10;81.20;;;;;;4935243;29;20261;-77
2021/03/29 06:48:23;;;;;;;0.60;0.60;;;14.00;80.90;;;;;;4935689;29;20218;-75
2021/03/29 06:51:04;;;;;;;0.40;0.40;;;14.10;81.10;;;;;;4935535;29;20226;-74
2021/03/29 06:53:31;;;;;;;0.50;0.50;;;14.10;80.20;;;;;;4935509;29;20257;-74
2021/03/29 06:56:23;;;;;;;0.50;0.50;;;14.20;80.70;;;;;;4935353;29;20618;-76
2021/03/29 06:58:50;;;;;;;0.40;0.40;;;14.10;79.80;;;;;;4935607;29;20210;-75
2021/03/29 07:01:18;;;;;;;0.57;0.57;;;14.20;79.70;;;;;;4935376;29;20222;-76
2021/03/29 07:03:47;;;;;;;0.50;0.50;;;14.20;79.40;;;;;;4935545;29;20209;-76
2021/03/29 07:06:15;;;;;;;0.50;0.50;;;14.30;79.10;;;;;;4935579;29;20273;-75
2021/03/29 07:08:44;;;;;;;0.50;0.50;;;14.40;79.10;;;;;;4935202;29;20210;-75
2021/03/29 07:11:13;;;;;;;0.55;0.55;;;14.60;78.90;;;;;;4934918;29;20242;-75
2021/03/29 07:13:41;;;;;;;0.50;0.50;;;14.50;78.60;;;;;;4934989;29;20679;-77
2021/03/29 07:16:10;;;;;;;0.50;0.50;;;14.50;78.60;;;;;;4934906;29;20202;-75
2021/03/29 07:18:37;;;;;;;0.60;0.60;;;14.60;78.70;;;;;;4935007;29;20261;-75
2021/03/29 07:21:05;;;;;;;0.60;0.60;;;14.70;78.60;;;;;;4934915;29;20233;-76
2021/03/29 07:23:36;;;;;;;0.60;0.60;;;14.80;78.10;;;;;;4935341;29;20210;-76
2021/03/29 07:26:20;;;;;;;0.43;0.43;;;14.90;78.30;;;;;;4934494;29;20229;-75
2021/03/29 07:28:48;;;;;;;0.40;0.40;;;14.60;77.40;;;;;;4935006;29;20663;-76
2021/03/29 07:31:36;;;;;;;0.40;0.40;;;15.20;77.40;;;;;;4934669;29;20225;-76
2021/03/29 07:34:03;;;;;;;0.40;0.40;;;15.20;76.70;;;;;;4933907;29;20232;-76
2021/03/29 07:36:47;;;;;;;0.40;0.40;;;15.30;76.80;;;;;;4934567;29;20699;-76
2021/03/29 07:39:22;;;;;;;0.50;0.50;;;15.20;76.30;;;;;;4935168;29;20210;-76
2021/03/29 07:42:34;;;;;;;0.40;0.40;;;15.20;76.70;;;;;;4934823;29;20221;-76
2021/03/29 07:45:04;;;;;;;0.40;0.40;;;15.40;75.90;;;;;;4934405;29;20210;-76
2021/03/29 07:47:49;;;;;;;0.40;0.40;;;15.50;76.40;;;;;;4934433;29;20222;-76
2021/03/29 07:50:38;;;;;;;0.45;0.45;;;15.60;75.50;;;;;;4934698;29;20707;-76
2021/03/29 07:53:07;;;;;;;0.47;0.47;;;15.50;75.40;;;;;;4934841;29;20202;-76
2021/03/29 07:55:37;;;;;;;0.40;0.40;;;15.70;75.30;;;;;;4934594;29;20210;-76
2021/03/29 07:58:09;;;;;;;0.50;0.50;;;15.70;74.40;;;;;;4934883;29;20613;-75
2021/03/29 08:00:46;;;;;;;0.43;0.43;;;15.70;74.10;;;;;;4934175;29;20649;-75
2021/03/29 08:03:51;;;;;;;0.40;0.40;;;15.60;75.20;;;;;;4934245;29;20213;-75
2021/03/29 08:06:38;;;;;;;0.40;0.40;;;15.40;75.00;;;;;;4934039;29;20233;-75
2021/03/29 08:09:07;;;;;;;0.50;0.50;;;15.50;75.70;;;;;;4934126;29;20265;-74
2021/03/29 08:12:00;;;;;;;0.50;0.50;;;15.50;76.80;;;;;;4934053;29;20263;-76
2021/03/29 08:14:33;;;;;;;0.50;0.50;;;15.50;75.70;;;;;;4934303;29;20208;-75
2021/03/29 08:17:33;;;;;;;0.40;0.40;;;15.40;76.60;;;;;;4934206;29;20253;-77
2021/03/29 08:20:25;;;;;;;0.50;0.50;;;15.60;75.40;;;;;;4934349;29;20302;-75
2021/03/29 08:23:40;;;;;;;0.50;0.50;;;15.50;74.30;;;;;;4933975;29;20217;-75
2021/03/29 08:26:21;;;;;;;0.40;0.40;;;15.50;74.50;;;;;;4874779;29;20701;-76
2021/03/29 08:29:31;;;;;;;0.40;0.40;;;15.70;74.40;;;;;;4925795;29;20730;-75
2021/03/29 08:32:14;;;;;;;0.50;0.50;;;15.60;74.10;;;;;;4933893;29;20730;-75
2021/03/29 08:34:53;;;;;;;0.50;0.50;;;15.60;74.10;;;;;;4933615;29;20500;-74
2021/03/29 08:37:26;;;;;;;0.40;0.40;;;15.60;74.50;;;;;;4934069;29;20220;-74
2021/03/29 08:39:56;;;;;;;0.40;0.40;;;15.70;74.20;;;;;;4933882;29;20210;-75
2021/03/29 08:42:25;;;;;;;0.40;0.40;;;15.60;75.60;;;;;;4933778;29;20230;-75
2021/03/29 08:44:53;;;;;;;0.40;0.40;;;15.70;75.00;;;;;;4933459;29;20256;-78
2021/03/29 08:47:22;;;;;;;0.50;0.50;;;15.70;74.50;;;;;;4937655;29;20229;-75
2021/03/29 08:49:52;;;;;;;0.50;0.50;;;15.70;74.00;;;;;;4938066;29;20210;-76
2021/03/29 08:52:19;;;;;;;0.40;0.40;;;15.50;74.40;;;;;;4937717;29;20230;-76
2021/03/29 08:54:48;;;;;;;0.40;0.40;;;15.50;74.60;;;;;;4937224;29;20229;-76
2021/03/29 08:57:15;;;;;;;0.50;0.50;;;15.50;75.60;;;;;;4938039;29;20268;-75
2021/03/29 08:59:41;;;;;;;0.40;0.40;;;15.40;74.00;;;;;;4937630;29;20277;-76
2021/03/29 09:02:16;;;;;;;0.50;0.50;;;15.40;74.80;;;;;;4937542;29;20575;-76
2021/03/29 09:04:51;;;;;;;0.40;0.40;;;15.40;74.00;;;;;;4937171;29;20220;-75
2021/03/29 09:07:18;;;;;;;0.50;0.50;;;15.60;75.40;;;;;;4937606;29;20278;-75
2021/03/29 09:09:45;;;;;;;0.50;0.50;;;15.70;74.30;;;;;;4937167;29;20241;-76
2021/03/29 09:12:27;;;;;;;0.40;0.40;;;16.00;74.00;;;;;;4937187;29;20238;-76
2021/03/29 09:14:54;;;;;;;0.40;0.40;;;;;;;;;;4937102;29;20209;-76
2021/03/29 09:17:27;;;;;;;0.40;0.40;;;16.70;99.90;;;;;;4937240;29;20198;-75
2021/03/29 09:19:54;;;;;;;0.40;0.40;;;16.70;71.70;;;;;;4937076;29;20205;-76
2021/03/29 09:22:34;;;;;;;0.40;0.40;;;16.90;71.60;;;;;;4936961;29;20225;-76
2021/03/29 09:25:03;;;;;;;0.40;0.40;;;17.00;72.00;;;;;;4936843;29;20316;-76
2021/03/29 09:27:34;;;;;;;0.50;0.50;;;17.20;70.70;;;;;;4937349;29;20226;-76
2021/03/29 09:30:05;;;;;;;0.35;0.35;;;17.10;70.70;;;;;;4937190;29;20213;-76
2021/03/29 09:32:33;;;;;;;0.40;0.40;;;17.20;69.90;;;;;;4937093;29;20281;-76
2021/03/29 09:35:01;;;;;;;0.40;0.40;;;;;;;;;;4936932;29;20209;-76
2021/03/29 09:37:29;;;;;;;0.40;0.40;;;17.40;86.80;;;;;;4937093;29;20202;-76
2021/03/29 09:39:57;;;;;;;0.30;0.30;;;17.40;69.30;;;;;;4936725;29;20206;-76
2021/03/29 09:42:41;;;;;;;0.40;0.40;;;17.40;68.20;;;;;;4936802;29;20237;-76
2021/03/29 09:45:11;;;;;;;0.40;0.40;;;17.30;68.80;;;;;;4936097;29;20206;-76
2021/03/29 09:47:39;;;;;;;0.43;0.43;;;17.20;68.20;;;;;;4936621;29;20245;-76
2021/03/29 09:50:09;;;;;;;0.40;0.40;;;17.20;68.60;;;;;;4936717;29;20206;-76
2021/03/29 09:52:42;;;;;;;0.32;0.32;;;17.30;69.10;;;;;;4936653;29;20265;-75
2021/03/29 09:55:11;;;;;;;0.40;0.40;;;17.30;68.70;;;;;;4936206;29;20206;-76
2021/03/29 09:57:40;;;;;;;0.40;0.40;;;17.30;69.50;;;;;;4935541;29;20210;-76
2021/03/29 10:00:15;;;;;;;0.38;0.38;;;17.40;68.50;;;;;;4936727;29;20265;-76
2021/03/29 10:02:43;;;;;;;0.40;0.40;;;17.60;68.80;;;;;;4936540;29;20255;-75
2021/03/29 10:05:11;;;;;;;0.30;0.30;;;17.80;67.80;;;;;;4936116;29;20457;-76
2021/03/29 10:07:48;;;;;;;0.30;0.30;;;;;;;;;;4937173;29;20218;-76
2021/03/29 10:10:24;;;;;;;0.30;0.30;;;18.70;85.40;;;;;;4936197;29;20213;-76
2021/03/29 10:12:51;;;;;;;0.30;0.30;;;18.30;65.50;;;;;;4937041;29;20209;-76
2021/03/29 10:15:18;;;;;;;0.30;0.30;;;18.20;65.50;;;;;;4936515;29;20738;-76
2021/03/29 10:17:46;;;;;;;0.30;0.30;;;18.00;66.80;;;;;;4936108;29;20510;-76
2021/03/29 10:20:15;;;;;;;0.30;0.30;;;17.90;87.40;;;;;;4935954;29;20285;-76
2021/03/29 10:22:42;;;;;;;0.30;0.30;;;17.90;67.80;;;;;;4935842;29;20296;-76
2021/03/29 10:25:14;;;;;;;0.30;0.30;;;18.00;67.50;;;;;;4936528;29;20213;-76
2021/03/29 10:27:46;;;;;;;0.30;0.30;;;18.00;68.40;;;;;;4936664;29;20226;-76
2021/03/29 10:30:24;;;;;;;0.30;0.30;;;17.80;91.30;;;;;;4936947;29;20217;-77
2021/03/29 10:32:53;;;;;;;0.30;0.30;;;17.80;68.90;;;;;;4936704;29;20272;-77
2021/03/29 10:35:21;;;;;;;0.30;0.30;;;18.00;68.60;;;;;;4936142;29;20206;-77
2021/03/29 10:37:49;;;;;;;0.30;0.30;;;18.10;68.30;;;;;;4936953;29;20622;-77
2021/03/29 10:40:17;;;;;;;0.30;0.30;;;18.20;90.10;;;;;;4936828;29;20249;-77
2021/03/29 10:42:44;;;;;;;0.30;0.30;;;18.20;66.20;;;;;;4940374;29;20209;-77
2021/03/29 10:45:14;;;;;;;0.50;0.50;;;18.40;65.20;;;;;;4941490;29;20211;-75
2021/03/29 10:47:42;;;;;;;0.47;0.47;;;18.40;65.50;;;;;;4937239;29;20613;-76
2021/03/29 10:50:12;;;;;;;0.30;0.30;;;18.60;64.10;;;;;;4936678;29;20209;-77
2021/03/29 10:52:41;;;;;;;0.40;0.40;;;18.50;63.60;;;;;;4937156;29;20228;-75
2021/03/29 10:55:09;;;;;;;0.30;0.30;;;18.40;63.60;;;;;;4935481;29;20671;-75
2021/03/29 10:57:35;;;;;;;0.30;0.30;;;18.70;63.80;;;;;;4935426;29;20198;-76
2021/03/29 11:00:03;;;;;;;0.30;0.30;;;18.80;63.00;;;;;;4935211;29;20763;-76
2021/03/29 11:02:30;;;;;;;0.30;0.30;;;19.10;62.70;;;;;;4935556;29;20638;-76
2021/03/29 11:04:58;;;;;;;0.30;0.30;;;;;;;;;;4938221;29;20213;-75
2021/03/29 11:07:25;;;;;;;0.30;0.30;;;19.30;61.60;;;;;;4938340;29;20711;-76
2021/03/29 11:09:52;;;;;;;0.30;0.30;;;19.20;61.90;;;;;;4936176;29;20580;-77
2021/03/29 11:12:20;;;;;;;0.30;0.30;;;19.30;62.10;;;;;;4935813;29;20301;-76
2021/03/29 11:14:47;;;;;;;0.30;0.30;;;19.30;61.60;;;;;;4934993;29;20214;-75
2021/03/29 11:17:14;;;;;;;0.40;0.40;;;19.20;60.80;;;;;;4935138;29;20561;-76
2021/03/29 11:19:41;;;;;;;0.30;0.30;;;;;;;;;;4935044;29;20209;-76
2021/03/29 11:22:08;;;;;;;0.30;0.30;;;18.90;60.50;;;;;;4934752;29;20230;-76
2021/03/29 11:24:36;;;;;;;0.30;0.30;;;18.90;61.80;;;;;;4934710;29;20206;-76
2021/03/29 11:27:03;;;;;;;0.28;0.28;;;18.90;61.10;;;;;;4935071;29;20257;-77
2021/03/29 11:29:30;;;;;;;0.30;0.30;;;19.10;61.20;;;;;;4935484;29;20711;-77
2021/03/29 11:31:57;;;;;;;0.40;0.40;;;19.10;61.60;;;;;;4935645;29;20229;-76
2021/03/29 11:34:24;;;;;;;0.40;0.40;;;19.00;60.00;;;;;;4935795;29;20285;-76
2021/03/29 11:36:51;;;;;;;0.30;0.30;;;19.00;60.50;;;;;;4935200;29;20643;-76
2021/03/29 11:39:18;;;;;;;0.30;0.30;;;19.20;60.30;;;;;;4935121;29;20574;-76
2021/03/29 11:41:46;;;;;;;0.25;0.25;;;19.30;59.50;;;;;;4935270;29;20230;-76
2021/03/29 11:44:13;;;;;;;0.30;0.30;;;19.50;61.00;;;;;;4936201;29;20261;-75
2021/03/29 11:46:40;;;;;;;0.30;0.30;;;19.50;61.50;;;;;;4934195;29;20209;-75
2021/03/29 11:49:06;;;;;;;0.40;0.40;;;19.30;62.50;;;;;;4934718;29;20644;-74
2021/03/29 11:51:34;;;;;;;0.30;0.30;;;18.90;59.90;;;;;;4934439;29;20277;-74
2021/03/29 11:54:01;;;;;;;0.30;0.30;;;18.90;59.40;;;;;;4934487;29;20284;-74
2021/03/29 11:56:28;;;;;;;0.30;0.30;;;18.90;60.10;;;;;;4934069;29;20206;-74
2021/03/29 11:58:56;;;;;;;0.40;0.40;;;18.90;59.30;;;;;;4934397;29;20206;-75
2021/03/29 12:01:33;;;;;;;0.30;0.30;;;19.00;60.50;;;;;;4934297;29;20226;-75
2021/03/29 12:04:04;;;;;;;0.45;0.45;;;19.00;61.20;;;;;;4934440;29;20210;-74
2021/03/29 12:06:36;;;;;;;0.30;0.30;;;18.90;60.90;;;;;;4934034;29;20210;-75
2021/03/29 12:09:11;;;;;;;0.30;0.30;;;18.90;61.60;;;;;;4934225;29;20707;-74
2021/03/29 12:11:58;;;;;;;0.30;0.30;;;19.10;61.60;;;;;;4934085;29;20232;-74
2021/03/29 12:14:29;;;;;;;0.30;0.30;;;19.00;61.20;;;;;;4934208;29;20212;-74
2021/03/29 12:16:57;;;;;;;0.30;0.30;;;19.00;61.50;;;;;;4933932;29;20205;-74
2021/03/29 12:19:24;;;;;;;0.30;0.30;;;19.40;79.00;;;;;;4934020;29;20709;-75
2021/03/29 12:21:56;;;;;;;0.30;0.30;;;19.20;61.90;;;;;;4933487;29;20707;-75
2021/03/29 12:24:25;;;;;;;0.30;0.30;;;19.20;60.90;;;;;;4934106;29;20209;-76
2021/03/29 12:26:52;;;;;;;0.30;0.30;;;19.10;62.00;;;;;;4933766;29;20222;-75
2021/03/29 12:29:22;;;;;;;0.30;0.30;;;19.10;61.50;;;;;;4934049;29;20265;-75
2021/03/29 12:31:50;;;;;;;0.30;0.30;;;19.10;61.90;;;;;;4933721;29;20730;-75
2021/03/29 12:34:18;;;;;;;0.30;0.30;;;19.20;62.00;;;;;;4934093;29;20218;-74
2021/03/29 12:36:46;;;;;;;0.30;0.30;;;18.90;61.30;;;;;;4934648;29;20206;-74
2021/03/29 12:39:18;;;;;;;0.30;0.30;;;18.80;62.40;;;;;;4934278;29;20210;-73
2021/03/29 12:41:52;;;;;;;0.30;0.30;;;18.90;61.90;;;;;;4934577;29;20230;-74
2021/03/29 12:44:19;;;;;;;0.30;0.30;;;18.80;63.00;;;;;;4933901;29;20210;-74
2021/03/29 12:46:49;;;;;;;0.30;0.30;;;18.60;62.90;;;;;;4933790;29;20206;-74
2021/03/29 12:49:17;;;;;;;0.30;0.30;;;18.60;63.30;;;;;;4933996;29;20206;-74
2021/03/29 12:51:45;;;;;;;0.30;0.30;;;18.80;62.70;;;;;;4933805;29;20230;-74
2021/03/29 12:54:14;;;;;;;0.40;0.40;;;19.00;63.10;;;;;;4933647;29;20202;-75
2021/03/29 12:56:42;;;;;;;0.30;0.30;;;19.20;63.10;;;;;;4933802;29;20578;-75
2021/03/29 12:59:09;;;;;;;0.30;0.30;;;19.20;62.70;;;;;;4933559;29;20210;-74
2021/03/29 13:01:38;;;;;;;0.30;0.30;;;19.30;63.00;;;;;;4933864;29;20222;-74
2021/03/29 13:04:07;;;;;;;0.30;0.30;;;19.50;62.80;;;;;;4933595;29;20210;-74
2021/03/29 13:07:03;;;;;;;0.30;0.30;;;19.50;62.40;;;;;;4933405;29;20217;-74
2021/03/29 13:09:42;;;;;;;0.30;0.30;;;19.60;62.40;;;;;;4933526;29;20245;-75
2021/03/29 13:12:10;;;;;;;0.22;0.22;;;19.90;62.10;;;;;;4933319;29;20798;-75
2021/03/29 13:14:57;;;;;;;0.30;0.30;;;19.90;62.10;;;;;;4933373;29;20610;-75
2021/03/29 13:17:24;;;;;;;0.30;0.30;;;20.30;62.10;;;;;;4933472;29;20269;-74
2021/03/29 13:19:51;;;;;;;0.30;0.30;;;20.80;60.90;;;;;;4933327;29;20611;-73
2021/03/29 13:22:19;;;;;;;0.30;0.30;;;20.80;60.60;;;;;;4933848;29;20230;-74
2021/03/29 13:24:46;;;;;;;0.30;0.30;;;20.90;61.00;;;;;;4933611;29;20202;-76
2021/03/29 13:27:14;;;;;;;0.30;0.30;;;20.90;60.40;;;;;;4933528;29;20273;-76
2021/03/29 13:29:43;;;;;;;0.20;0.20;;;20.80;60.80;;;;;;4933655;29;20489;-75
2021/03/29 13:32:11;;;;;;;0.20;0.20;;;20.90;60.40;;;;;;4933656;29;20634;-75
2021/03/29 13:34:38;;;;;;;0.30;0.30;;;21.00;60.50;;;;;;4937074;29;20210;-75
2021/03/29 13:37:05;;;;;;;0.22;0.22;;;21.20;60.30;;;;;;4936831;29;20215;-74
2021/03/29 13:39:34;;;;;;;0.20;0.20;;;21.20;60.60;;;;;;4936826;29;20210;-74
2021/03/29 13:42:02;;;;;;;0.20;0.20;;;21.30;61.50;;;;;;4937733;29;20710;-74
2021/03/29 13:44:29;;;;;;;0.20;0.20;;;21.40;61.50;;;;;;4936613;29;20647;-74
2021/03/29 13:46:56;;;;;;;0.30;0.30;;;21.40;60.40;;;;;;4936413;29;20261;-75
2021/03/29 13:49:29;;;;;;;0.20;0.20;;;21.50;60.30;;;;;;4936796;29;20257;-74
2021/03/29 13:51:57;;;;;;;0.20;0.20;;;22.20;61.30;;;;;;4936616;29;20226;-74
2021/03/29 13:54:24;;;;;;;0.20;0.20;;;21.20;61.80;;;;;;4936458;29;20210;-74
2021/03/29 13:56:53;;;;;;;0.20;0.20;;;21.00;62.10;;;;;;4935560;29;20210;-77
2021/03/29 13:59:20;;;;;;;0.30;0.30;;;20.90;62.50;;;;;;4948593;29;20206;-73
2021/03/29 14:01:47;;;;;;;0.20;0.20;;;20.70;64.10;;;;;;4945104;29;20221;-72
2021/03/29 14:04:15;;;;;;;0.20;0.20;;;20.80;64.50;;;;;;4952764;29;20796;-72
2021/03/29 14:06:43;;;;;;;0.30;0.30;;;20.60;61.60;;;;;;4953510;29;20209;-72
2021/03/29 14:09:12;;;;;;;0.30;0.30;;;20.50;63.00;;;;;;4953522;29;20633;-71
2021/03/29 14:11:39;;;;;;;0.20;0.20;;;20.40;63.20;;;;;;4953429;28;20229;-71
2021/03/29 14:14:07;;;;;;;0.20;0.20;;;20.40;63.70;;;;;;4953394;29;20276;-71
2021/03/29 14:16:34;;;;;;;0.20;0.20;;;20.40;64.00;;;;;;4954707;29;20221;-72
2021/03/29 14:19:04;;;;;;;0.20;0.20;;;20.20;65.00;;;;;;4955382;29;20201;-72
2021/03/29 14:21:31;;;;;;;0.30;0.30;;;20.30;64.50;;;;;;4955255;28;20225;-72
2021/03/29 14:23:58;;;;;;;0.30;0.30;;;20.40;62.00;;;;;;4955180;29;20252;-72
2021/03/29 14:26:25;;;;;;;0.20;0.20;;;20.40;61.20;;;;;;4954692;29;20213;-73
2021/03/29 14:28:52;;;;;;;0.30;0.30;;;20.50;61.40;;;;;;4955193;29;20280;-73
2021/03/29 14:31:21;;;;;;;0.22;0.22;;;20.60;61.20;;;;;;4955217;28;20221;-73
2021/03/29 14:33:49;;;;;;;0.20;0.20;;;20.80;61.00;;;;;;4955073;29;20205;-73
2021/03/29 14:36:27;;;;;;;0.30;0.30;;;20.80;60.10;;;;;;4954736;29;20252;-72
2021/03/29 14:39:03;;;;;;;0.20;0.20;;;20.90;60.30;;;;;;4955065;29;20209;-72
2021/03/29 14:41:45;;;;;;;0.25;0.25;;;21.00;59.90;;;;;;4941391;29;20229;-72
2021/03/29 14:44:30;;;;;;;0.20;0.20;;;21.20;60.30;;;;;;4941601;29;20686;-75
2021/03/29 14:47:00;;;;;;;0.30;0.30;;;21.40;58.80;;;;;;4937910;29;20202;-78
2021/03/29 14:49:27;;;;;;;0.30;0.30;;;21.30;58.80;;;;;;4946994;29;20725;-81
2021/03/29 14:51:56;;;;;;;0.20;0.20;;;21.20;59.30;;;;;;4951671;29;20636;-76
2021/03/29 14:54:23;;;;;;;0.20;0.20;;;21.00;59.00;;;;;;4938535;29;20741;-77
2021/03/29 14:56:50;;;;;;;0.30;0.30;;;20.80;59.70;;;;;;4933811;29;20261;-77
2021/03/29 14:59:22;;;;;;;0.22;0.22;;;;;;;;;;4930732;29;20254;-76
2021/03/29 15:01:50;;;;;;;0.30;0.30;;;20.70;60.30;;;;;;4933722;29;20234;-74
2021/03/29 15:04:22;;;;;;;0.30;0.30;;;20.50;59.80;;;;;;4935277;29;20206;-75
2021/03/29 15:07:00;;;;;;;0.30;0.30;;;20.50;60.40;;;;;;4938061;29;20214;-75
2021/03/29 15:09:27;;;;;;;0.30;0.30;;;20.40;61.20;;;;;;4936213;29;20273;-75
2021/03/29 15:11:54;;;;;;;0.30;0.30;;;20.30;61.70;;;;;;4935897;29;20292;-74
2021/03/29 15:14:22;;;;;;;0.40;0.40;;;20.30;80.90;;;;;;4934470;29;20210;-75
2021/03/29 15:16:49;;;;;;;0.20;0.20;;;20.10;62.60;;;;;;4934861;29;20286;-76
2021/03/29 15:19:16;;;;;;;0.40;0.40;;;20.10;62.20;;;;;;4935005;29;20344;-76
2021/03/29 15:21:44;;;;;;;0.30;0.30;;;20.10;62.60;;;;;;4934946;29;20222;-75
2021/03/29 15:24:12;;;;;;;0.30;0.30;;;20.20;62.90;;;;;;4934984;29;20210;-75
2021/03/29 15:26:39;;;;;;;0.30;0.30;;;20.30;62.90;;;;;;4934853;29;20619;-75
2021/03/29 15:29:11;;;;;;;0.20;0.20;;;20.30;62.40;;;;;;4935006;29;20233;-75
2021/03/29 15:31:38;;;;;;;0.20;0.20;;;20.30;62.60;;;;;;4934533;29;20238;-75
2021/03/29 15:34:05;;;;;;;0.20;0.20;;;20.40;62.10;;;;;;4934566;29;20221;-75
2021/03/29 15:36:32;;;;;;;0.20;0.20;;;20.60;61.80;;;;;;4934492;29;20738;-76
2021/03/29 15:39:00;;;;;;;0.20;0.20;;;20.80;61.90;;;;;;4934614;29;20301;-76
2021/03/29 15:41:27;;;;;;;0.20;0.20;;;21.00;61.20;;;;;;4934343;29;20226;-76
2021/03/29 15:43:56;;;;;;;0.20;0.20;;;21.10;61.20;;;;;;4934350;29;20210;-76
2021/03/29 15:46:23;;;;;;;0.20;0.20;;;21.20;60.20;;;;;;4934223;29;20202;-74
2021/03/29 15:48:53;;;;;;;0.20;0.20;;;21.10;60.10;;;;;;4934210;29;20237;-75
2021/03/29 15:51:20;;;;;;;0.20;0.20;;;21.00;60.90;;;;;;4934470;29;20285;-75
2021/03/29 15:53:47;;;;;;;0.20;0.20;;;20.90;60.00;;;;;;4934174;29;20214;-76
2021/03/29 15:56:15;;;;;;;0.30;0.30;;;20.90;61.20;;;;;;4933963;29;20206;-75
2021/03/29 15:58:42;;;;;;;0.20;0.20;;;20.90;61.10;;;;;;4934951;29;20259;-75
2021/03/29 16:01:11;;;;;;;0.20;0.20;;;20.80;61.60;;;;;;4934635;29;20234;-75
2021/03/29 16:03:40;;;;;;;0.20;0.20;;;20.80;61.30;;;;;;4934555;29;20209;-75
2021/03/29 16:06:12;;;;;;;0.20;0.20;;;20.80;61.20;;;;;;4934019;29;20686;-75
2021/03/29 16:08:39;;;;;;;0.30;0.30;;;20.80;61.00;;;;;;4934070;29;20222;-75
2021/03/29 16:11:08;;;;;;;0.20;0.20;;;20.90;60.10;;;;;;4934014;29;20238;-75
2021/03/29 16:13:36;;;;;;;0.30;0.30;;;20.90;60.20;;;;;;4934514;29;20262;-76
2021/03/29 16:16:04;;;;;;;0.20;0.20;;;20.80;60.20;;;;;;4933944;29;20619;-75
2021/03/29 16:18:31;;;;;;;0.30;0.30;;;20.90;60.70;;;;;;4934072;29;20671;-75
2021/03/29 16:20:58;;;;;;;0.20;0.20;;;21.00;60.50;;;;;;4933564;29;20229;-75
2021/03/29 16:23:25;;;;;;;0.20;0.20;;;21.10;60.40;;;;;;4933788;29;20205;-75
2021/03/29 16:25:55;;;;;;;0.20;0.20;;;21.30;75.90;;;;;;4947159;23;20299;-75
2021/03/29 16:28:22;;;;;;;0.20;0.20;;;21.10;59.50;;;;;;4933930;29;20702;-77
2021/03/29 16:30:50;;;;;;;0.25;0.25;;;21.30;76.60;;;;;;4937751;29;20209;-75
2021/03/29 16:33:19;;;;;;;0.20;0.20;;;21.10;76.90;;;;;;4954378;29;20209;-75
2021/03/29 16:35:47;;;;;;;0.20;0.20;;;20.70;60.80;;;;;;4938122;29;20236;-75
2021/03/29 16:38:14;;;;;;;0.20;0.20;;;21.10;60.90;;;;;;4936823;29;20209;-75
2021/03/29 16:40:41;;;;;;;0.22;0.22;;;21.00;77.40;;;;;;4925142;29;20207;-76
2021/03/29 16:43:10;;;;;;;0.20;0.20;;;20.80;78.10;;;;;;4939458;29;20293;-75
2021/03/29 16:45:37;;;;;;;0.30;0.30;;;20.80;63.50;;;;;;4934636;29;20226;-74
2021/03/29 16:48:06;;;;;;;0.20;0.20;;;20.40;78.30;;;;;;4918089;29;20314;-76
2021/03/29 16:50:33;;;;;;;0.20;0.20;;;20.60;62.00;;;;;;4924939;29;20205;-75
2021/03/29 16:53:00;;;;;;;0.20;0.20;;;20.60;62.40;;;;;;4932106;29;20202;-75
2021/03/29 16:55:27;;;;;;;0.20;0.20;;;20.20;81.60;;;;;;4937636;29;20253;-75
2021/03/29 16:57:54;;;;;;;0.20;0.20;;;20.40;62.40;;;;;;4939937;29;20205;-77
2021/03/29 17:00:23;;;;;;;0.20;0.20;;;20.20;81.00;;;;;;4934715;29;20218;-76
2021/03/29 17:02:50;;;;;;;0.20;0.20;;;20.20;63.30;;;;;;4945468;29;20206;-77
2021/03/29 17:05:18;;;;;;;0.30;0.30;;;20.10;63.30;;;;;;4945475;29;20233;-76
2021/03/29 17:07:45;;;;;;;0.20;0.20;;;;;;;;;;4941803;29;20222;-77
2021/03/29 17:10:13;;;;;;;0.20;0.20;;;19.90;98.00;;;;;;4940578;29;20206;-78
2021/03/29 17:12:40;;;;;;;0.20;0.20;;;19.90;98.60;;;;;;4936939;29;20207;-79
2021/03/29 17:15:11;;;;;;;0.20;0.20;;;19.70;64.50;;;;;;4920918;29;20246;-78